sensor_id;sensor_type;location;lat;lon;timestamp;P1;durP1;ratioP1;P2;durP2;ratioP2
30505;SDS011;17292;51.600;4.994;2022-11-09T00:01:27;8.15;;;3.47;;
30505;SDS011;17292;51.600;4.994;2022-11-09T00:03:54;13.40;;;3.63;;
30505;SDS011;17292;51.600;4.994;2022-11-09T00:06:21;9.60;;;3.05;;
30505;SDS011;17292;51.600;4.994;2022-11-09T00:08:48;15.10;;;3.40;;
30505;SDS011;17292;51.600;4.994;2022-11-09T00:11:14;9.57;;;3.38;;
30505;SDS011;17292;51.600;4.994;2022-11-09T00:13:41;10.63;;;3.15;;
30505;SDS011;17292;51.600;4.994;2022-11-09T00:16:08;11.43;;;3.70;;
30505;SDS011;17292;51.600;4.994;2022-11-09T00:18:35;13.73;;;4.15;;
30505;SDS011;17292;51.600;4.994;2022-11-09T00:21:08;8.90;;;3.25;;
30505;SDS011;17292;51.600;4.994;2022-11-09T00:23:35;9.98;;;3.40;;
30505;SDS011;17292;51.600;4.994;2022-11-09T00:26:01;6.57;;;2.80;;
30505;SDS011;17292;51.600;4.994;2022-11-09T00:28:28;9.23;;;3.10;;
30505;SDS011;17292;51.600;4.994;2022-11-09T00:31:01;9.50;;;3.22;;
30505;SDS011;17292;51.600;4.994;2022-11-09T00:33:28;12.25;;;3.20;;
30505;SDS011;17292;51.600;4.994;2022-11-09T00:35:54;8.57;;;3.03;;
30505;SDS011;17292;51.600;4.994;2022-11-09T00:38:20;8.40;;;2.90;;
30505;SDS011;17292;51.600;4.994;2022-11-09T00:40:47;7.50;;;3.30;;
30505;SDS011;17292;51.600;4.994;2022-11-09T00:43:13;10.68;;;3.03;;
30505;SDS011;17292;51.600;4.994;2022-11-09T00:45:40;8.63;;;3.05;;
30505;SDS011;17292;51.600;4.994;2022-11-09T00:48:07;12.02;;;3.33;;
30505;SDS011;17292;51.600;4.994;2022-11-09T00:50:33;10.10;;;2.83;;
30505;SDS011;17292;51.600;4.994;2022-11-09T00:53:00;10.45;;;3.10;;
30505;SDS011;17292;51.600;4.994;2022-11-09T00:55:26;11.27;;;3.38;;
30505;SDS011;17292;51.600;4.994;2022-11-09T00:57:52;8.27;;;3.13;;
30505;SDS011;17292;51.600;4.994;2022-11-09T01:00:19;8.52;;;3.78;;
30505;SDS011;17292;51.600;4.994;2022-11-09T01:02:46;10.57;;;3.42;;
30505;SDS011;17292;51.600;4.994;2022-11-09T01:05:12;10.70;;;3.53;;
30505;SDS011;17292;51.600;4.994;2022-11-09T01:07:39;10.85;;;3.30;;
30505;SDS011;17292;51.600;4.994;2022-11-09T01:10:05;11.25;;;3.20;;
30505;SDS011;17292;51.600;4.994;2022-11-09T01:12:31;10.10;;;3.22;;
30505;SDS011;17292;51.600;4.994;2022-11-09T01:14:58;9.88;;;3.15;;
30505;SDS011;17292;51.600;4.994;2022-11-09T01:17:24;7.50;;;2.83;;
30505;SDS011;17292;51.600;4.994;2022-11-09T01:19:51;13.45;;;3.35;;
30505;SDS011;17292;51.600;4.994;2022-11-09T01:22:17;7.30;;;3.03;;
30505;SDS011;17292;51.600;4.994;2022-11-09T01:24:44;6.50;;;2.97;;
30505;SDS011;17292;51.600;4.994;2022-11-09T01:27:10;7.50;;;3.22;;
30505;SDS011;17292;51.600;4.994;2022-11-09T01:29:37;9.80;;;3.08;;
30505;SDS011;17292;51.600;4.994;2022-11-09T01:32:04;8.25;;;2.70;;
30505;SDS011;17292;51.600;4.994;2022-11-09T01:34:30;8.18;;;2.88;;
30505;SDS011;17292;51.600;4.994;2022-11-09T01:36:56;10.35;;;3.45;;
30505;SDS011;17292;51.600;4.994;2022-11-09T01:39:23;9.07;;;3.22;;
30505;SDS011;17292;51.600;4.994;2022-11-09T01:41:49;10.88;;;2.92;;
30505;SDS011;17292;51.600;4.994;2022-11-09T01:44:16;6.68;;;3.15;;
30505;SDS011;17292;51.600;4.994;2022-11-09T01:49:25;9.73;;;3.05;;
30505;SDS011;17292;51.600;4.994;2022-11-09T01:52:02;9.45;;;3.10;;
30505;SDS011;17292;51.600;4.994;2022-11-09T01:54:30;10.20;;;3.03;;
30505;SDS011;17292;51.600;4.994;2022-11-09T01:56:58;14.85;;;3.45;;
30505;SDS011;17292;51.600;4.994;2022-11-09T01:59:27;10.52;;;3.38;;
30505;SDS011;17292;51.600;4.994;2022-11-09T02:01:54;10.30;;;3.47;;
30505;SDS011;17292;51.600;4.994;2022-11-09T02:04:22;9.45;;;3.17;;
30505;SDS011;17292;51.600;4.994;2022-11-09T02:06:49;9.32;;;3.17;;
30505;SDS011;17292;51.600;4.994;2022-11-09T02:09:20;9.20;;;3.22;;
30505;SDS011;17292;51.600;4.994;2022-11-09T02:11:48;8.32;;;3.55;;
30505;SDS011;17292;51.600;4.994;2022-11-09T02:14:14;9.57;;;3.28;;
30505;SDS011;17292;51.600;4.994;2022-11-09T02:16:41;8.23;;;3.03;;
30505;SDS011;17292;51.600;4.994;2022-11-09T02:19:07;9.02;;;3.08;;
30505;SDS011;17292;51.600;4.994;2022-11-09T02:21:34;8.30;;;2.40;;
30505;SDS011;17292;51.600;4.994;2022-11-09T02:24:00;7.45;;;2.70;;
30505;SDS011;17292;51.600;4.994;2022-11-09T02:26:28;8.27;;;2.88;;
30505;SDS011;17292;51.600;4.994;2022-11-09T02:28:56;10.48;;;3.83;;
30505;SDS011;17292;51.600;4.994;2022-11-09T02:31:24;7.68;;;2.67;;
30505;SDS011;17292;51.600;4.994;2022-11-09T02:33:58;6.90;;;3.28;;
30505;SDS011;17292;51.600;4.994;2022-11-09T02:36:25;8.40;;;2.97;;
30505;SDS011;17292;51.600;4.994;2022-11-09T02:38:51;10.60;;;3.30;;
30505;SDS011;17292;51.600;4.994;2022-11-09T02:41:19;9.73;;;3.15;;
30505;SDS011;17292;51.600;4.994;2022-11-09T02:43:46;6.53;;;3.10;;
30505;SDS011;17292;51.600;4.994;2022-11-09T02:46:12;6.95;;;2.92;;
30505;SDS011;17292;51.600;4.994;2022-11-09T02:48:38;7.93;;;3.03;;
30505;SDS011;17292;51.600;4.994;2022-11-09T02:51:04;6.85;;;2.70;;
30505;SDS011;17292;51.600;4.994;2022-11-09T02:53:30;11.15;;;3.05;;
30505;SDS011;17292;51.600;4.994;2022-11-09T02:55:57;8.40;;;3.35;;
30505;SDS011;17292;51.600;4.994;2022-11-09T02:58:23;10.73;;;2.80;;
30505;SDS011;17292;51.600;4.994;2022-11-09T03:00:49;10.38;;;3.10;;
30505;SDS011;17292;51.600;4.994;2022-11-09T03:03:15;8.43;;;3.30;;
30505;SDS011;17292;51.600;4.994;2022-11-09T03:05:41;7.75;;;3.10;;
30505;SDS011;17292;51.600;4.994;2022-11-09T03:08:08;5.90;;;2.75;;
30505;SDS011;17292;51.600;4.994;2022-11-09T03:10:34;6.00;;;2.70;;
30505;SDS011;17292;51.600;4.994;2022-11-09T03:13:00;10.70;;;3.08;;
30505;SDS011;17292;51.600;4.994;2022-11-09T03:15:27;9.63;;;3.13;;
30505;SDS011;17292;51.600;4.994;2022-11-09T03:17:53;9.88;;;2.97;;
30505;SDS011;17292;51.600;4.994;2022-11-09T03:20:19;6.68;;;2.60;;
30505;SDS011;17292;51.600;4.994;2022-11-09T03:22:45;8.45;;;2.80;;
30505;SDS011;17292;51.600;4.994;2022-11-09T03:25:12;6.20;;;2.67;;
30505;SDS011;17292;51.600;4.994;2022-11-09T03:27:38;8.98;;;3.13;;
30505;SDS011;17292;51.600;4.994;2022-11-09T03:30:04;6.97;;;2.85;;
30505;SDS011;17292;51.600;4.994;2022-11-09T03:32:31;9.00;;;2.80;;
30505;SDS011;17292;51.600;4.994;2022-11-09T03:34:57;7.20;;;2.60;;
30505;SDS011;17292;51.600;4.994;2022-11-09T03:37:23;6.35;;;2.97;;
30505;SDS011;17292;51.600;4.994;2022-11-09T03:39:49;8.18;;;3.33;;
30505;SDS011;17292;51.600;4.994;2022-11-09T03:42:15;9.35;;;2.92;;
30505;SDS011;17292;51.600;4.994;2022-11-09T03:44:42;7.20;;;2.90;;
30505;SDS011;17292;51.600;4.994;2022-11-09T03:47:08;6.60;;;2.85;;
30505;SDS011;17292;51.600;4.994;2022-11-09T03:49:34;11.05;;;2.95;;
30505;SDS011;17292;51.600;4.994;2022-11-09T03:52:00;7.65;;;2.78;;
30505;SDS011;17292;51.600;4.994;2022-11-09T03:54:26;6.32;;;2.67;;
30505;SDS011;17292;51.600;4.994;2022-11-09T03:56:53;7.75;;;2.80;;
30505;SDS011;17292;51.600;4.994;2022-11-09T03:59:19;9.00;;;3.33;;
30505;SDS011;17292;51.600;4.994;2022-11-09T04:01:45;5.97;;;2.70;;
30505;SDS011;17292;51.600;4.994;2022-11-09T04:04:12;6.13;;;3.08;;
30505;SDS011;17292;51.600;4.994;2022-11-09T04:06:38;9.45;;;2.92;;
30505;SDS011;17292;51.600;4.994;2022-11-09T04:09:04;6.57;;;2.65;;
30505;SDS011;17292;51.600;4.994;2022-11-09T04:11:30;5.90;;;2.70;;
30505;SDS011;17292;51.600;4.994;2022-11-09T04:13:57;5.75;;;2.45;;
30505;SDS011;17292;51.600;4.994;2022-11-09T04:16:23;5.07;;;2.70;;
30505;SDS011;17292;51.600;4.994;2022-11-09T04:18:49;8.65;;;3.10;;
30505;SDS011;17292;51.600;4.994;2022-11-09T04:21:15;6.82;;;2.95;;
30505;SDS011;17292;51.600;4.994;2022-11-09T04:23:42;6.45;;;2.95;;
30505;SDS011;17292;51.600;4.994;2022-11-09T04:26:08;9.30;;;2.85;;
30505;SDS011;17292;51.600;4.994;2022-11-09T04:28:34;8.27;;;3.30;;
30505;SDS011;17292;51.600;4.994;2022-11-09T04:31:00;5.40;;;2.75;;
30505;SDS011;17292;51.600;4.994;2022-11-09T04:33:27;7.05;;;2.83;;
30505;SDS011;17292;51.600;4.994;2022-11-09T04:35:53;8.07;;;3.10;;
30505;SDS011;17292;51.600;4.994;2022-11-09T04:38:20;7.07;;;2.40;;
30505;SDS011;17292;51.600;4.994;2022-11-09T04:40:46;5.68;;;2.67;;
30505;SDS011;17292;51.600;4.994;2022-11-09T04:43:12;5.03;;;2.42;;
30505;SDS011;17292;51.600;4.994;2022-11-09T04:45:40;9.15;;;2.80;;
30505;SDS011;17292;51.600;4.994;2022-11-09T04:48:06;7.03;;;2.90;;
30505;SDS011;17292;51.600;4.994;2022-11-09T04:50:33;6.97;;;2.70;;
30505;SDS011;17292;51.600;4.994;2022-11-09T04:53:03;7.55;;;2.80;;
30505;SDS011;17292;51.600;4.994;2022-11-09T04:55:29;6.68;;;2.78;;
30505;SDS011;17292;51.600;4.994;2022-11-09T04:57:56;9.13;;;2.80;;
30505;SDS011;17292;51.600;4.994;2022-11-09T05:00:22;11.30;;;3.10;;
30505;SDS011;17292;51.600;4.994;2022-11-09T05:02:48;7.65;;;3.10;;
30505;SDS011;17292;51.600;4.994;2022-11-09T05:05:14;4.95;;;2.25;;
30505;SDS011;17292;51.600;4.994;2022-11-09T05:07:40;6.55;;;2.40;;
30505;SDS011;17292;51.600;4.994;2022-11-09T05:10:07;8.05;;;2.95;;
30505;SDS011;17292;51.600;4.994;2022-11-09T05:12:33;4.35;;;2.40;;
30505;SDS011;17292;51.600;4.994;2022-11-09T05:14:59;6.95;;;2.67;;
30505;SDS011;17292;51.600;4.994;2022-11-09T05:17:25;6.63;;;2.58;;
30505;SDS011;17292;51.600;4.994;2022-11-09T05:19:52;7.72;;;2.75;;
30505;SDS011;17292;51.600;4.994;2022-11-09T05:22:18;4.50;;;2.40;;
30505;SDS011;17292;51.600;4.994;2022-11-09T05:25:03;8.25;;;2.75;;
30505;SDS011;17292;51.600;4.994;2022-11-09T05:27:29;8.20;;;2.78;;
30505;SDS011;17292;51.600;4.994;2022-11-09T05:29:55;6.88;;;3.08;;
30505;SDS011;17292;51.600;4.994;2022-11-09T05:32:21;5.82;;;3.05;;
30505;SDS011;17292;51.600;4.994;2022-11-09T05:34:47;7.07;;;2.90;;
30505;SDS011;17292;51.600;4.994;2022-11-09T05:37:14;4.63;;;2.42;;
30505;SDS011;17292;51.600;4.994;2022-11-09T05:39:42;5.65;;;2.78;;
30505;SDS011;17292;51.600;4.994;2022-11-09T05:42:08;7.22;;;2.60;;
30505;SDS011;17292;51.600;4.994;2022-11-09T05:44:34;8.85;;;2.35;;
30505;SDS011;17292;51.600;4.994;2022-11-09T05:47:00;6.70;;;2.90;;
30505;SDS011;17292;51.600;4.994;2022-11-09T05:49:27;6.05;;;3.03;;
30505;SDS011;17292;51.600;4.994;2022-11-09T05:51:53;6.70;;;2.85;;
30505;SDS011;17292;51.600;4.994;2022-11-09T05:54:19;7.28;;;2.78;;
30505;SDS011;17292;51.600;4.994;2022-11-09T05:56:45;9.48;;;3.13;;
30505;SDS011;17292;51.600;4.994;2022-11-09T05:59:11;9.05;;;2.70;;
30505;SDS011;17292;51.600;4.994;2022-11-09T06:01:38;8.20;;;2.72;;
30505;SDS011;17292;51.600;4.994;2022-11-09T06:04:04;7.95;;;2.60;;
30505;SDS011;17292;51.600;4.994;2022-11-09T06:06:30;5.07;;;2.30;;
30505;SDS011;17292;51.600;4.994;2022-11-09T06:08:57;5.15;;;2.85;;
30505;SDS011;17292;51.600;4.994;2022-11-09T06:11:23;6.60;;;2.75;;
30505;SDS011;17292;51.600;4.994;2022-11-09T06:13:49;5.05;;;2.58;;
30505;SDS011;17292;51.600;4.994;2022-11-09T06:16:15;6.07;;;2.30;;
30505;SDS011;17292;51.600;4.994;2022-11-09T06:18:42;8.18;;;2.78;;
30505;SDS011;17292;51.600;4.994;2022-11-09T06:21:08;9.32;;;2.55;;
30505;SDS011;17292;51.600;4.994;2022-11-09T06:23:35;10.18;;;2.80;;
30505;SDS011;17292;51.600;4.994;2022-11-09T06:26:02;6.68;;;2.88;;
30505;SDS011;17292;51.600;4.994;2022-11-09T06:28:30;8.32;;;3.40;;
30505;SDS011;17292;51.600;4.994;2022-11-09T06:30:57;6.65;;;2.90;;
30505;SDS011;17292;51.600;4.994;2022-11-09T06:33:24;8.10;;;3.10;;
30505;SDS011;17292;51.600;4.994;2022-11-09T06:35:51;8.65;;;2.85;;
30505;SDS011;17292;51.600;4.994;2022-11-09T06:38:17;22.70;;;3.60;;
30505;SDS011;17292;51.600;4.994;2022-11-09T06:40:43;16.48;;;3.22;;
30505;SDS011;17292;51.600;4.994;2022-11-09T06:43:10;11.30;;;3.00;;
30505;SDS011;17292;51.600;4.994;2022-11-09T06:45:36;14.07;;;3.40;;
30505;SDS011;17292;51.600;4.994;2022-11-09T06:48:02;13.98;;;3.00;;
30505;SDS011;17292;51.600;4.994;2022-11-09T06:50:31;10.50;;;3.08;;
30505;SDS011;17292;51.600;4.994;2022-11-09T06:52:58;9.32;;;3.30;;
30505;SDS011;17292;51.600;4.994;2022-11-09T06:55:25;11.82;;;3.00;;
30505;SDS011;17292;51.600;4.994;2022-11-09T06:57:52;19.48;;;3.22;;
30505;SDS011;17292;51.600;4.994;2022-11-09T07:00:19;23.20;;;3.72;;
30505;SDS011;17292;51.600;4.994;2022-11-09T07:02:45;13.75;;;2.97;;
30505;SDS011;17292;51.600;4.994;2022-11-09T07:05:11;14.20;;;3.10;;
30505;SDS011;17292;51.600;4.994;2022-11-09T07:07:37;20.95;;;3.20;;
30505;SDS011;17292;51.600;4.994;2022-11-09T07:10:04;8.10;;;2.78;;
30505;SDS011;17292;51.600;4.994;2022-11-09T07:12:30;13.00;;;3.10;;
30505;SDS011;17292;51.600;4.994;2022-11-09T07:14:57;8.45;;;3.03;;
30505;SDS011;17292;51.600;4.994;2022-11-09T07:17:23;23.52;;;3.58;;
30505;SDS011;17292;51.600;4.994;2022-11-09T07:19:49;14.40;;;2.92;;
30505;SDS011;17292;51.600;4.994;2022-11-09T07:22:15;9.23;;;3.03;;
30505;SDS011;17292;51.600;4.994;2022-11-09T07:24:42;11.85;;;3.70;;
30505;SDS011;17292;51.600;4.994;2022-11-09T07:27:08;8.73;;;3.13;;
30505;SDS011;17292;51.600;4.994;2022-11-09T07:29:34;17.33;;;3.00;;
30505;SDS011;17292;51.600;4.994;2022-11-09T07:32:01;11.98;;;3.33;;
30505;SDS011;17292;51.600;4.994;2022-11-09T07:34:27;15.30;;;3.55;;
30505;SDS011;17292;51.600;4.994;2022-11-09T07:36:53;33.25;;;4.30;;
30505;SDS011;17292;51.600;4.994;2022-11-09T07:39:19;28.75;;;4.28;;
30505;SDS011;17292;51.600;4.994;2022-11-09T07:41:46;24.67;;;4.57;;
30505;SDS011;17292;51.600;4.994;2022-11-09T07:44:13;22.38;;;4.07;;
30505;SDS011;17292;51.600;4.994;2022-11-09T07:46:46;17.10;;;3.30;;
30505;SDS011;17292;51.600;4.994;2022-11-09T07:49:12;13.02;;;3.35;;
30505;SDS011;17292;51.600;4.994;2022-11-09T07:51:39;12.30;;;3.10;;
30505;SDS011;17292;51.600;4.994;2022-11-09T07:54:06;13.57;;;3.60;;
30505;SDS011;17292;51.600;4.994;2022-11-09T07:56:32;9.18;;;3.10;;
30505;SDS011;17292;51.600;4.994;2022-11-09T07:58:58;11.32;;;2.70;;
30505;SDS011;17292;51.600;4.994;2022-11-09T08:01:25;15.38;;;3.13;;
30505;SDS011;17292;51.600;4.994;2022-11-09T08:03:51;17.50;;;3.45;;
30505;SDS011;17292;51.600;4.994;2022-11-09T08:06:18;14.55;;;3.88;;
30505;SDS011;17292;51.600;4.994;2022-11-09T08:08:45;18.20;;;3.78;;
30505;SDS011;17292;51.600;4.994;2022-11-09T08:11:11;23.80;;;4.03;;
30505;SDS011;17292;51.600;4.994;2022-11-09T08:13:38;15.85;;;3.92;;
30505;SDS011;17292;51.600;4.994;2022-11-09T08:16:04;8.10;;;3.08;;
30505;SDS011;17292;51.600;4.994;2022-11-09T08:18:30;11.57;;;3.25;;
30505;SDS011;17292;51.600;4.994;2022-11-09T08:20:56;10.95;;;2.92;;
30505;SDS011;17292;51.600;4.994;2022-11-09T08:23:26;18.88;;;2.83;;
30505;SDS011;17292;51.600;4.994;2022-11-09T08:25:52;11.52;;;3.30;;
30505;SDS011;17292;51.600;4.994;2022-11-09T08:28:18;13.52;;;3.42;;
30505;SDS011;17292;51.600;4.994;2022-11-09T08:30:44;14.65;;;3.53;;
30505;SDS011;17292;51.600;4.994;2022-11-09T08:33:11;12.88;;;3.28;;
30505;SDS011;17292;51.600;4.994;2022-11-09T08:35:38;18.30;;;3.17;;
30505;SDS011;17292;51.600;4.994;2022-11-09T08:38:04;13.60;;;3.10;;
30505;SDS011;17292;51.600;4.994;2022-11-09T08:40:31;12.68;;;2.85;;
30505;SDS011;17292;51.600;4.994;2022-11-09T08:43:01;17.55;;;3.90;;
30505;SDS011;17292;51.600;4.994;2022-11-09T08:45:28;17.52;;;3.58;;
30505;SDS011;17292;51.600;4.994;2022-11-09T08:47:56;17.63;;;3.17;;
30505;SDS011;17292;51.600;4.994;2022-11-09T08:50:22;17.83;;;3.33;;
30505;SDS011;17292;51.600;4.994;2022-11-09T08:52:48;14.40;;;3.60;;
30505;SDS011;17292;51.600;4.994;2022-11-09T08:55:15;16.08;;;3.47;;
30505;SDS011;17292;51.600;4.994;2022-11-09T08:57:41;12.88;;;3.15;;
30505;SDS011;17292;51.600;4.994;2022-11-09T09:00:07;16.10;;;3.70;;
30505;SDS011;17292;51.600;4.994;2022-11-09T09:02:33;11.27;;;3.10;;
30505;SDS011;17292;51.600;4.994;2022-11-09T09:04:59;11.45;;;3.42;;
30505;SDS011;17292;51.600;4.994;2022-11-09T09:07:26;15.70;;;3.35;;
30505;SDS011;17292;51.600;4.994;2022-11-09T09:09:52;12.07;;;3.60;;
30505;SDS011;17292;51.600;4.994;2022-11-09T09:12:18;12.43;;;3.95;;
30505;SDS011;17292;51.600;4.994;2022-11-09T09:14:45;13.23;;;3.38;;
30505;SDS011;17292;51.600;4.994;2022-11-09T09:17:11;14.10;;;3.65;;
30505;SDS011;17292;51.600;4.994;2022-11-09T09:19:37;15.18;;;3.65;;
30505;SDS011;17292;51.600;4.994;2022-11-09T09:22:03;14.38;;;3.85;;
30505;SDS011;17292;51.600;4.994;2022-11-09T09:24:30;18.33;;;3.90;;
30505;SDS011;17292;51.600;4.994;2022-11-09T09:26:56;15.55;;;3.70;;
30505;SDS011;17292;51.600;4.994;2022-11-09T09:29:22;22.58;;;3.92;;
30505;SDS011;17292;51.600;4.994;2022-11-09T09:31:48;15.93;;;3.83;;
30505;SDS011;17292;51.600;4.994;2022-11-09T09:34:15;20.02;;;3.50;;
30505;SDS011;17292;51.600;4.994;2022-11-09T09:36:41;14.63;;;3.53;;
30505;SDS011;17292;51.600;4.994;2022-11-09T09:39:07;17.48;;;3.70;;
30505;SDS011;17292;51.600;4.994;2022-11-09T09:44:01;23.88;;;3.30;;
30505;SDS011;17292;51.600;4.994;2022-11-09T09:46:39;9.05;;;3.25;;
30505;SDS011;17292;51.600;4.994;2022-11-09T09:49:29;20.25;;;4.35;;
30505;SDS011;17292;51.600;4.994;2022-11-09T09:52:04;15.18;;;3.17;;
30505;SDS011;17292;51.600;4.994;2022-11-09T09:54:48;16.05;;;3.45;;
30505;SDS011;17292;51.600;4.994;2022-11-09T09:57:16;18.23;;;3.63;;
30505;SDS011;17292;51.600;4.994;2022-11-09T09:59:43;23.15;;;3.90;;
30505;SDS011;17292;51.600;4.994;2022-11-09T10:04:39;25.15;;;4.60;;
30505;SDS011;17292;51.600;4.994;2022-11-09T10:07:09;13.07;;;3.72;;
30505;SDS011;17292;51.600;4.994;2022-11-09T10:10:23;21.33;;;3.92;;
30505;SDS011;17292;51.600;4.994;2022-11-09T10:18:01;23.70;;;4.20;;
30505;SDS011;17292;51.600;4.994;2022-11-09T10:20:36;21.08;;;4.55;;
30505;SDS011;17292;51.600;4.994;2022-11-09T10:28:38;13.30;;;3.60;;
30505;SDS011;17292;51.600;4.994;2022-11-09T10:31:16;20.58;;;3.85;;
30505;SDS011;17292;51.600;4.994;2022-11-09T10:33:48;19.98;;;4.15;;
30505;SDS011;17292;51.600;4.994;2022-11-09T10:36:21;22.05;;;3.92;;
30505;SDS011;17292;51.600;4.994;2022-11-09T10:38:49;18.27;;;3.60;;
30505;SDS011;17292;51.600;4.994;2022-11-09T10:44:01;17.33;;;3.50;;
30505;SDS011;17292;51.600;4.994;2022-11-09T10:46:27;15.55;;;2.92;;
30505;SDS011;17292;51.600;4.994;2022-11-09T10:48:54;14.20;;;3.92;;
30505;SDS011;17292;51.600;4.994;2022-11-09T10:51:34;9.05;;;3.35;;
30505;SDS011;17292;51.600;4.994;2022-11-09T10:54:14;21.15;;;3.60;;
30505;SDS011;17292;51.600;4.994;2022-11-09T10:56:48;15.00;;;3.58;;
30505;SDS011;17292;51.600;4.994;2022-11-09T11:05:34;18.65;;;4.25;;
30505;SDS011;17292;51.600;4.994;2022-11-09T11:07:37;22.27;;;3.88;;
30505;SDS011;17292;51.600;4.994;2022-11-09T11:10:10;16.75;;;4.00;;
30505;SDS011;17292;51.600;4.994;2022-11-09T11:12:43;25.92;;;3.92;;
30505;SDS011;17292;51.600;4.994;2022-11-09T11:15:20;16.10;;;3.55;;
30505;SDS011;17292;51.600;4.994;2022-11-09T11:17:47;20.20;;;4.20;;
30505;SDS011;17292;51.600;4.994;2022-11-09T11:20:31;23.98;;;4.10;;
30505;SDS011;17292;51.600;4.994;2022-11-09T11:25:32;15.13;;;3.55;;
30505;SDS011;17292;51.600;4.994;2022-11-09T11:28:05;22.63;;;3.92;;
30505;SDS011;17292;51.600;4.994;2022-11-09T11:30:35;20.52;;;4.40;;
30505;SDS011;17292;51.600;4.994;2022-11-09T11:33:13;27.88;;;4.28;;
30505;SDS011;17292;51.600;4.994;2022-11-09T11:35:56;14.70;;;3.67;;
30505;SDS011;17292;51.600;4.994;2022-11-09T11:40:59;24.80;;;4.10;;
30505;SDS011;17292;51.600;4.994;2022-11-09T11:43:34;20.73;;;3.95;;
30505;SDS011;17292;51.600;4.994;2022-11-09T11:51:18;19.52;;;3.78;;
30505;SDS011;17292;51.600;4.994;2022-11-09T11:56:39;10.77;;;3.20;;
30505;SDS011;17292;51.600;4.994;2022-11-09T12:01:50;19.70;;;4.15;;
30505;SDS011;17292;51.600;4.994;2022-11-09T12:12:33;26.08;;;3.70;;
30505;SDS011;17292;51.600;4.994;2022-11-09T12:15:22;24.95;;;4.30;;
30505;SDS011;17292;51.600;4.994;2022-11-09T12:18:14;20.02;;;4.32;;
30505;SDS011;17292;51.600;4.994;2022-11-09T12:20:43;23.42;;;4.38;;
30505;SDS011;17292;51.600;4.994;2022-11-09T12:28:46;19.02;;;3.53;;
30505;SDS011;17292;51.600;4.994;2022-11-09T12:31:40;29.00;;;3.97;;
30505;SDS011;17292;51.600;4.994;2022-11-09T12:34:06;16.35;;;3.53;;
30505;SDS011;17292;51.600;4.994;2022-11-09T12:36:39;31.23;;;4.25;;
30505;SDS011;17292;51.600;4.994;2022-11-09T12:41:52;23.70;;;4.05;;
30505;SDS011;17292;51.600;4.994;2022-11-09T12:44:23;21.25;;;3.50;;
30505;SDS011;17292;51.600;4.994;2022-11-09T12:46:55;20.17;;;4.10;;
30505;SDS011;17292;51.600;4.994;2022-11-09T12:49:29;21.08;;;4.28;;
30505;SDS011;17292;51.600;4.994;2022-11-09T12:51:56;20.17;;;4.60;;
30505;SDS011;17292;51.600;4.994;2022-11-09T12:54:22;16.52;;;3.78;;
30505;SDS011;17292;51.600;4.994;2022-11-09T12:56:54;17.10;;;3.45;;
30505;SDS011;17292;51.600;4.994;2022-11-09T12:59:44;21.85;;;3.97;;
30505;SDS011;17292;51.600;4.994;2022-11-09T13:02:18;17.83;;;4.40;;
30505;SDS011;17292;51.600;4.994;2022-11-09T13:04:53;19.30;;;4.00;;
30505;SDS011;17292;51.600;4.994;2022-11-09T13:07:29;15.65;;;4.00;;
30505;SDS011;17292;51.600;4.994;2022-11-09T13:09:57;14.95;;;4.30;;
30505;SDS011;17292;51.600;4.994;2022-11-09T13:14:53;9.88;;;3.28;;
30505;SDS011;17292;51.600;4.994;2022-11-09T13:19:50;17.85;;;4.15;;
30505;SDS011;17292;51.600;4.994;2022-11-09T13:27:33;21.40;;;4.40;;
30505;SDS011;17292;51.600;4.994;2022-11-09T13:30:00;21.10;;;4.50;;
30505;SDS011;17292;51.600;4.994;2022-11-09T13:32:27;23.40;;;4.28;;
30505;SDS011;17292;51.600;4.994;2022-11-09T13:34:56;24.63;;;4.00;;
30505;SDS011;17292;51.600;4.994;2022-11-09T13:37:35;19.80;;;3.55;;
30505;SDS011;17292;51.600;4.994;2022-11-09T13:40:47;20.55;;;4.35;;
30505;SDS011;17292;51.600;4.994;2022-11-09T13:42:55;16.67;;;4.18;;
30505;SDS011;17292;51.600;4.994;2022-11-09T13:45:41;16.27;;;4.28;;
30505;SDS011;17292;51.600;4.994;2022-11-09T13:58:48;24.08;;;4.07;;
30505;SDS011;17292;51.600;4.994;2022-11-09T14:03:50;21.38;;;3.40;;
30505;SDS011;17292;51.600;4.994;2022-11-09T14:06:16;19.08;;;4.43;;
30505;SDS011;17292;51.600;4.994;2022-11-09T14:08:43;18.42;;;3.97;;
30505;SDS011;17292;51.600;4.994;2022-11-09T14:16:40;23.25;;;4.68;;
30505;SDS011;17292;51.600;4.994;2022-11-09T14:19:12;26.40;;;4.15;;
30505;SDS011;17292;51.600;4.994;2022-11-09T14:21:44;17.42;;;3.97;;
30505;SDS011;17292;51.600;4.994;2022-11-09T14:24:17;20.23;;;3.90;;
30505;SDS011;17292;51.600;4.994;2022-11-09T14:29:29;22.85;;;4.90;;
30505;SDS011;17292;51.600;4.994;2022-11-09T14:32:00;25.38;;;4.10;;
30505;SDS011;17292;51.600;4.994;2022-11-09T14:34:27;24.42;;;4.55;;
30505;SDS011;17292;51.600;4.994;2022-11-09T14:36:54;23.83;;;4.97;;
30505;SDS011;17292;51.600;4.994;2022-11-09T14:39:28;18.38;;;4.22;;
30505;SDS011;17292;51.600;4.994;2022-11-09T14:41:57;17.77;;;3.40;;
30505;SDS011;17292;51.600;4.994;2022-11-09T14:44:28;17.92;;;3.83;;
30505;SDS011;17292;51.600;4.994;2022-11-09T14:46:59;15.15;;;3.65;;
30505;SDS011;17292;51.600;4.994;2022-11-09T14:49:26;27.30;;;4.22;;
30505;SDS011;17292;51.600;4.994;2022-11-09T14:51:53;33.40;;;4.60;;
30505;SDS011;17292;51.600;4.994;2022-11-09T14:54:22;32.92;;;4.75;;
30505;SDS011;17292;51.600;4.994;2022-11-09T14:56:49;20.10;;;4.28;;
30505;SDS011;17292;51.600;4.994;2022-11-09T14:59:31;17.58;;;3.55;;
30505;SDS011;17292;51.600;4.994;2022-11-09T15:02:10;26.00;;;3.72;;
30505;SDS011;17292;51.600;4.994;2022-11-09T15:04:50;21.85;;;3.85;;
30505;SDS011;17292;51.600;4.994;2022-11-09T15:07:17;26.40;;;3.72;;
30505;SDS011;17292;51.600;4.994;2022-11-09T15:09:45;20.10;;;3.25;;
30505;SDS011;17292;51.600;4.994;2022-11-09T15:12:14;20.73;;;3.05;;
30505;SDS011;17292;51.600;4.994;2022-11-09T15:14:41;16.52;;;3.33;;
30505;SDS011;17292;51.600;4.994;2022-11-09T15:17:15;19.23;;;3.15;;
30505;SDS011;17292;51.600;4.994;2022-11-09T15:20:00;17.05;;;3.20;;
30505;SDS011;17292;51.600;4.994;2022-11-09T15:22:47;19.60;;;3.17;;
30505;SDS011;17292;51.600;4.994;2022-11-09T15:25:25;19.50;;;3.70;;
30505;SDS011;17292;51.600;4.994;2022-11-09T15:28:16;12.85;;;3.10;;
30505;SDS011;17292;51.600;4.994;2022-11-09T15:33:55;13.45;;;3.13;;
30505;SDS011;17292;51.600;4.994;2022-11-09T15:36:00;15.38;;;3.50;;
30505;SDS011;17292;51.600;4.994;2022-11-09T15:38:32;9.70;;;2.92;;
30505;SDS011;17292;51.600;4.994;2022-11-09T15:40:59;15.68;;;3.60;;
30505;SDS011;17292;51.600;4.994;2022-11-09T15:43:26;24.77;;;3.90;;
30505;SDS011;17292;51.600;4.994;2022-11-09T15:45:53;12.93;;;3.42;;
30505;SDS011;17292;51.600;4.994;2022-11-09T15:48:19;17.75;;;3.67;;
30505;SDS011;17292;51.600;4.994;2022-11-09T15:50:45;14.43;;;3.70;;
30505;SDS011;17292;51.600;4.994;2022-11-09T15:53:12;13.18;;;3.42;;
30505;SDS011;17292;51.600;4.994;2022-11-09T15:55:38;21.35;;;3.95;;
30505;SDS011;17292;51.600;4.994;2022-11-09T15:58:05;15.98;;;3.83;;
30505;SDS011;17292;51.600;4.994;2022-11-09T16:00:31;19.08;;;4.07;;
30505;SDS011;17292;51.600;4.994;2022-11-09T16:02:57;16.23;;;3.38;;
30505;SDS011;17292;51.600;4.994;2022-11-09T16:05:23;13.23;;;3.58;;
30505;SDS011;17292;51.600;4.994;2022-11-09T16:07:52;16.42;;;4.10;;
30505;SDS011;17292;51.600;4.994;2022-11-09T16:10:19;20.38;;;4.22;;
30505;SDS011;17292;51.600;4.994;2022-11-09T16:12:50;17.40;;;3.72;;
30505;SDS011;17292;51.600;4.994;2022-11-09T16:15:20;15.38;;;3.63;;
30505;SDS011;17292;51.600;4.994;2022-11-09T16:17:47;19.90;;;3.78;;
30505;SDS011;17292;51.600;4.994;2022-11-09T16:20:17;16.80;;;3.55;;
30505;SDS011;17292;51.600;4.994;2022-11-09T16:22:44;15.18;;;3.20;;